Time;durP1;ratioP1;P1;durP2;ratioP2;P2;SDS_P1;SDS_P2;PMS_P1;PMS_P2;Temp;Humidity;BMP_temperature;BMP_pressure;BME280_temperature;BME280_humidity;BME280_pressure;Samples;Min_cycle;Max_cycle;Signal;HPM_P1;HPM_P2
2022/02/22 00:00:56;;;;;;;;;;;;;;;5.02;59.46;98844.28;4346235;33;19980;-84
2022/02/22 00:03:22;;;;;;;;;;;;;;;5.01;59.45;98849.47;4320211;33;19995;-84
2022/02/22 00:05:48;;;;;;;;;;;;;;;5.08;59.46;98853.59;4332269;33;20365;-84
2022/02/22 00:08:13;;;;;;;;;;;;;;;4.95;59.46;98855.59;4345708;33;20834;-85
2022/02/22 00:10:38;;;;;;;;;;;;;;;4.88;59.46;98859.22;4331510;33;33187;-85
2022/02/22 00:13:03;;;;;;;;;;;;;;;4.83;59.44;98867.06;4332601;33;19998;-85
2022/02/22 00:15:29;;;;;;;;;;;;;;;4.76;59.44;98862.09;4345996;33;19999;-85
2022/02/22 00:17:54;;;;;;;;;;;;;;;4.89;59.45;98874.66;4346086;33;19995;-85
2022/02/22 00:20:19;;;;;;;;;;;;;;;4.85;59.45;98867.88;4332224;33;20359;-85
2022/02/22 00:22:45;;;;;;;;;;;;;;;4.90;59.45;98881.50;4344603;33;19995;-85
2022/02/22 00:25:13;;;;;;;;;;;;;;;4.97;59.45;98874.50;4344347;33;20018;-85
2022/02/22 00:27:47;;;;;;;;;;;;;;;5.10;59.46;98878.47;4345954;33;19995;-85
2022/02/22 00:30:12;;;;;;;;;;;;;;;5.06;59.46;98892.31;4344695;33;19998;-85
2022/02/22 00:32:40;;;;;;;;;;;;;;;4.98;59.45;98891.66;4332000;33;20317;-84
2022/02/22 00:35:09;;;;;;;;;;;;;;;5.00;59.46;98887.31;4332510;33;20038;-85
2022/02/22 00:37:35;;;;;;;;;;;;;;;4.97;59.45;98889.97;4332228;33;20022;-84
2022/02/22 00:40:00;;;;;;;;;;;;;;;5.00;59.46;98889.03;4345544;33;20313;-85
2022/02/22 00:42:26;;;;;;;;;;;;;;;5.16;59.47;98880.87;4345734;33;20285;-85
2022/02/22 00:44:51;;;;;;;;;;;;;;;5.10;59.47;98878.47;4345784;33;19972;-85
2022/02/22 00:47:16;;;;;;;;;;;;;;;5.26;59.47;98880.69;4332039;33;20011;-86
2022/02/22 00:49:42;;;;;;;;;;;;;;;5.10;59.46;98883.63;4331627;33;26854;-85
2022/02/22 00:52:07;;;;;;;;;;;;;;;4.96;59.45;98888.25;4345806;33;20063;-85
2022/02/22 00:54:32;;;;;;;;;;;;;;;4.88;59.45;98882.41;4345833;33;19995;-87
2022/02/22 00:56:57;;;;;;;;;;;;;;;4.86;59.44;98879.87;4308170;33;786427;-88
2022/02/22 00:59:23;;;;;;;;;;;;;;;5.05;59.46;98877.72;4321229;33;20369;-87
2022/02/22 01:01:48;;;;;;;;;;;;;;;4.97;59.46;98882.22;4333148;33;20010;-87
2022/02/22 01:04:13;;;;;;;;;;;;;;;5.05;59.46;98882.03;4320740;33;26222;-87
2022/02/22 01:06:38;;;;;;;;;;;;;;;5.05;59.46;98875.16;4333131;33;20367;-89
2022/02/22 01:09:06;;;;;;;;;;;;;;;5.20;59.47;98879.06;4333218;33;19998;-88
2022/02/22 01:11:31;;;;;;;;;;;;;;;5.32;59.48;98881.37;4333568;33;19999;-88
2022/02/22 01:13:56;;;;;;;;;;;;;;;4.86;59.44;98879.87;4320539;33;29073;-88
2022/02/22 01:16:21;;;;;;;;;;;;;;;4.95;59.46;98868.50;4333449;33;20035;-88
2022/02/22 01:18:47;;;;;;;;;;;;;;;5.18;59.47;98879.09;4346857;33;20478;-88
2022/02/22 01:21:12;;;;;;;;;;;;;;;4.89;59.45;98889.28;4320802;33;20285;-88
2022/02/22 01:23:37;;;;;;;;;;;;;;;4.77;59.44;98884.41;4346637;33;20042;-88
2022/02/22 01:26:02;;;;;;;;;;;;;;;5.07;59.46;98888.00;4346200;33;27980;-88
2022/02/22 01:28:27;;;;;;;;;;;;;;;4.92;59.45;98879.72;4345499;33;20025;-88
2022/02/22 01:30:53;;;;;;;;;;;;;;;4.98;59.45;98878.75;4320891;33;19988;-89
2022/02/22 01:33:18;;;;;;;;;;;;;;;5.07;59.46;98870.78;4333050;33;20055;-88
2022/02/22 01:35:43;;;;;;;;;;;;;;;5.14;59.46;98868.91;4333187;33;19983;-88
2022/02/22 01:38:08;;;;;;;;;;;;;;;5.04;59.46;98875.19;4332501;33;23384;-88
2022/02/22 01:40:34;;;;;;;;;;;;;;;5.06;59.46;98870.84;4345331;33;20330;-88
2022/02/22 01:42:59;;;;;;;;;;;;;;;4.98;59.46;98870.19;4320739;33;20047;-86
2022/02/22 01:45:25;;;;;;;;;;;;;;;5.24;59.47;98873.81;4347398;33;20100;-86
2022/02/22 01:47:50;;;;;;;;;;;;;;;5.38;59.47;98862.28;4334941;33;19976;-86
2022/02/22 01:50:16;;;;;;;;;;;;;;;5.34;59.47;98865.84;4322531;33;20113;-86
2022/02/22 01:52:41;;;;;;;;;;;;;;;5.62;59.49;98873.72;4348427;33;19987;-86
2022/02/22 01:55:06;;;;;;;;;;;;;;;5.51;59.48;98880.03;4348100;33;20014;-86
2022/02/22 01:57:32;;;;;;;;;;;;;;;5.38;59.48;98870.03;4334683;33;19979;-86
2022/02/22 01:59:57;;;;;;;;;;;;;;;5.57;59.49;98876.44;4346923;33;20019;-86
2022/02/22 02:02:22;;;;;;;;;;;;;;;5.42;59.48;98872.50;4348010;33;20732;-86
2022/02/22 02:04:47;;;;;;;;;;;;;;;5.44;59.48;98880.19;4334922;33;20274;-85
2022/02/22 02:07:13;;;;;;;;;;;;;;;5.28;59.47;98882.34;4347956;33;20010;-86
2022/02/22 02:09:38;;;;;;;;;;;;;;;5.53;59.49;98878.25;4348331;33;20007;-86
2022/02/22 02:12:03;;;;;;;;;;;;;;;5.50;59.49;98885.22;4334425;33;20361;-86
2022/02/22 02:14:29;;;;;;;;;;;;;;;5.60;59.49;98883.25;4348408;33;20647;-86
2022/02/22 02:16:54;;;;;;;;;;;;;;;5.52;59.48;98891.19;4346784;33;19979;-86
2022/02/22 02:19:20;;;;;;;;;;;;;;;5.51;59.48;98880.03;4334786;33;19991;-85
2022/02/22 02:21:45;;;;;;;;;;;;;;;5.52;59.48;98891.19;4348051;33;19991;-86
2022/02/22 02:24:15;;;;;;;;;;;;;;;5.44;59.48;98880.19;4348268;33;20131;-85
2022/02/22 02:26:40;;;;;;;;;;;;;;;5.60;59.49;98871.19;4322439;33;19988;-85
2022/02/22 02:29:07;;;;;;;;;;;;;;;5.60;59.49;98883.25;4334647;33;19999;-85
2022/02/22 02:31:32;;;;;;;;;;;;;;;5.52;59.49;98884.31;4348237;33;20007;-85
2022/02/22 02:33:58;;;;;;;;;;;;;;;5.44;59.48;98878.50;4322310;33;20045;-86
2022/02/22 02:36:24;;;;;;;;;;;;;;;5.52;59.49;98883.47;4322224;33;19983;-87
2022/02/22 02:38:49;;;;;;;;;;;;;;;5.53;59.49;98885.16;4321650;33;26682;-87
2022/02/22 02:41:14;;;;;;;;;;;;;;;5.51;59.48;98886.91;4334454;33;20266;-86
2022/02/22 02:43:39;;;;;;;;;;;;;;;5.61;59.48;98895.28;4347945;33;19998;-85
2022/02/22 02:46:05;;;;;;;;;;;;;;;5.51;59.48;98889.50;4347898;33;20010;-86
2022/02/22 02:48:30;;;;;;;;;;;;;;;5.64;59.49;98895.19;4348088;33;19964;-86
2022/02/22 02:50:55;;;;;;;;;;;;;;;5.54;59.49;98895.44;4347806;33;20354;-86
2022/02/22 02:53:20;;;;;;;;;;;;;;;5.56;59.49;98897.97;4321481;33;32944;-86
2022/02/22 02:55:45;;;;;;;;;;;;;;;5.54;59.49;98895.44;4347492;33;20265;-86
2022/02/22 02:58:11;;;;;;;;;;;;;;;5.64;59.49;98883.13;4334426;33;20380;-87
2022/02/22 03:00:36;;;;;;;;;;;;;;;5.43;59.48;98899.16;4346269;33;20789;-86
2022/02/22 03:03:01;;;;;;;;;;;;;;;5.67;59.49;98889.94;4334476;33;20031;-87
2022/02/22 03:05:26;;;;;;;;;;;;;;;5.79;59.50;98887.91;4334407;33;19987;-87
2022/02/22 03:07:54;;;;;;;;;;;;;;;5.73;59.50;98890.66;4347830;33;19963;-87
2022/02/22 03:10:20;;;;;;;;;;;;;;;5.70;59.50;98897.63;4347926;33;19996;-86
2022/02/22 03:12:45;;;;;;;;;;;;;;;5.77;59.50;98894.84;4347819;33;20381;-86
2022/02/22 03:15:10;;;;;;;;;;;;;;;5.99;59.51;98905.47;4321843;33;20088;-87
2022/02/22 03:17:36;;;;;;;;;;;;;;;5.95;59.51;98905.63;4347912;33;20005;-86
2022/02/22 03:20:02;;;;;;;;;;;;;;;6.00;59.51;98904.59;4347741;33;20006;-87
2022/02/22 03:22:27;;;;;;;;;;;;;;;6.25;59.52;98909.09;4321938;33;20302;-87
2022/02/22 03:24:52;;;;;;;;;;;;;;;6.19;59.52;98911.84;4347363;33;22169;-87
2022/02/22 03:27:17;;;;;;;;;;;;;;;6.00;59.51;98921.81;4347190;33;29739;-86
2022/02/22 03:29:43;;;;;;;;;;;;;;;6.14;59.52;98911.94;4347810;33;19995;-87
2022/02/22 03:32:08;;;;;;;;;;;;;;;6.17;59.52;98931.72;4347714;33;20317;-87
2022/02/22 03:34:34;;;;;;;;;;;;;;;6.21;59.53;98936.75;4334276;33;20314;-87
2022/02/22 03:36:59;;;;;;;;;;;;;;;6.49;59.53;98926.47;4334149;33;19979;-87
2022/02/22 03:39:24;;;;;;;;;;;;;;;6.53;59.54;98940.16;4347217;33;24960;-87
2022/02/22 03:41:49;;;;;;;;;;;;;;;6.68;59.55;98931.97;4347763;33;20309;-87
2022/02/22 03:44:15;;;;;;;;;;;;;;;6.72;59.56;98939.59;4347768;33;20010;-88
2022/02/22 03:46:40;;;;;;;;;;;;;;;6.71;59.55;98939.66;4334228;33;20011;-88
2022/02/22 03:49:05;;;;;;;;;;;;;;;6.66;59.55;98944.09;4334156;33;20007;-86
2022/02/22 03:51:30;;;;;;;;;;;;;;;6.87;59.56;98951.25;4333231;33;34297;-87
2022/02/22 03:53:56;;;;;;;;;;;;;;;6.87;59.56;98946.06;4333525;33;25247;-86
2022/02/22 03:56:21;;;;;;;;;;;;;;;6.77;59.55;98940.31;4334125;33;20002;-87
2022/02/22 03:58:46;;;;;;;;;;;;;;;6.73;59.56;98949.06;4333722;33;19980;-87
2022/02/22 04:01:11;;;;;;;;;;;;;;;6.72;59.56;98942.19;4345861;33;19983;-86
2022/02/22 04:03:36;;;;;;;;;;;;;;;6.58;59.55;98954.66;4334042;33;20002;-86
2022/02/22 04:06:02;;;;;;;;;;;;;;;6.74;59.55;98950.75;4346796;33;30401;-87
2022/02/22 04:08:27;;;;;;;;;;;;;;;6.76;59.55;98954.13;4346312;33;23403;-87
2022/02/22 04:10:52;;;;;;;;;;;;;;;6.81;59.56;98964.34;4333169;33;32632;-86
2022/02/22 04:13:17;;;;;;;;;;;;;;;6.87;59.56;98968.50;4333876;33;20063;-86
2022/02/22 04:15:42;;;;;;;;;;;;;;;6.91;59.56;98970.94;4333977;33;20050;-86
2022/02/22 04:18:08;;;;;;;;;;;;;;;7.03;59.57;98980.06;4334055;33;20014;-87
2022/02/22 04:20:33;;;;;;;;;;;;;;;7.04;59.57;98972.25;4347496;33;19987;-86
2022/02/22 04:22:59;;;;;;;;;;;;;;;7.10;59.58;98979.00;4334031;33;20321;-86
2022/02/22 04:25:24;;;;;;;;;;;;;;;7.15;59.57;98977.13;4345590;33;27401;-86
2022/02/22 04:27:49;;;;;;;;;;;;;;;7.12;59.58;98981.56;4333906;33;20025;-87
2022/02/22 04:30:15;;;;;;;;;;;;;;;7.01;59.56;98985.28;4333985;33;20560;-87
2022/02/22 04:32:40;;;;;;;;;;;;;;;7.19;59.58;98985.63;4347405;33;19995;-86
2022/02/22 04:35:06;;;;;;;;;;;;;;;7.29;59.58;98976.69;4320948;33;32794;-86
2022/02/22 04:37:31;;;;;;;;;;;;;;;7.26;59.58;98987.13;4347363;33;20051;-86
2022/02/22 04:39:58;;;;;;;;;;;;;;;7.22;59.57;98985.53;4346967;33;21985;-86
2022/02/22 04:42:23;;;;;;;;;;;;;;;7.35;59.59;98990.31;4347305;33;20042;-87
2022/02/22 04:44:48;;;;;;;;;;;;;;;7.48;59.60;98989.91;4321413;33;20234;-86
2022/02/22 04:47:13;;;;;;;;;;;;;;;7.37;59.59;98990.25;4333487;33;20011;-86
2022/02/22 04:49:39;;;;;;;;;;;;;;;7.40;59.59;98992.75;4321342;33;19987;-86
2022/02/22 04:52:04;;;;;;;;;;;;;;;7.38;59.59;98995.37;4347087;33;19999;-86
2022/02/22 04:54:29;;;;;;;;;;;;;;;7.41;59.59;98993.59;4347194;33;19998;-87
2022/02/22 04:56:55;;;;;;;;;;;;;;;7.39;59.58;98999.66;4333274;33;20561;-86
2022/02/22 04:59:20;;;;;;;;;;;;;;;7.43;59.60;99002.16;4347186;33;20017;-88
2022/02/22 05:01:45;;;;;;;;;;;;;;;7.54;59.59;99003.50;4333451;33;19998;-86
2022/02/22 05:04:11;;;;;;;;;;;;;;;7.58;59.60;99004.28;4333479;33;20014;-86
2022/02/22 05:06:36;;;;;;;;;;;;;;;7.60;59.60;98999.91;4321194;33;20365;-87
2022/02/22 05:09:01;;;;;;;;;;;;;;;7.56;59.60;99013.81;4333473;33;20031;-86
2022/02/22 05:11:27;;;;;;;;;;;;;;;7.56;59.60;99003.44;4333592;33;20375;-86
2022/02/22 05:13:52;;;;;;;;;;;;;;;7.53;59.59;99009.56;4346623;33;19990;-86
2022/02/22 05:16:17;;;;;;;;;;;;;;;7.53;59.59;99007.00;4333081;33;22191;-87
2022/02/22 05:18:42;;;;;;;;;;;;;;;7.51;59.59;99006.19;4320859;33;19988;-87
2022/02/22 05:21:07;;;;;;;;;;;;;;;7.59;59.60;99004.22;4332265;33;20300;-88
2022/02/22 05:23:35;;;;;;;;;;;;;;;7.41;59.59;99004.78;4320937;33;19993;-87
2022/02/22 05:26:01;;;;;;;;;;;;;;;7.25;59.59;99014.75;4333597;33;20365;-88
2022/02/22 05:28:26;;;;;;;;;;;;;;;7.14;59.57;99011.66;4333257;33;19998;-86
2022/02/22 05:30:52;;;;;;;;;;;;;;;7.11;59.58;99009.19;4333163;33;19976;-87
2022/02/22 05:33:17;;;;;;;;;;;;;;;7.02;59.58;99025.81;4333209;33;20026;-87
2022/02/22 05:35:43;;;;;;;;;;;;;;;6.95;59.57;99026.03;4320731;33;19995;-88
2022/02/22 05:38:08;;;;;;;;;;;;;;;6.77;59.55;99027.41;4333178;33;19995;-89
2022/02/22 05:40:33;;;;;;;;;;;;;;;6.72;59.55;99026.69;4333055;33;19991;-86
2022/02/22 05:42:58;;;;;;;;;;;;;;;6.57;59.54;99037.44;4344797;33;21677;-86
2022/02/22 05:45:24;;;;;;;;;;;;;;;6.53;59.54;99030.66;4320563;33;20015;-86
2022/02/22 05:47:49;;;;;;;;;;;;;;;6.56;59.54;99033.16;4346523;33;19979;-86
2022/02/22 05:50:14;;;;;;;;;;;;;;;6.46;59.54;99045.50;4332395;33;23759;-86
2022/02/22 05:52:39;;;;;;;;;;;;;;;6.52;59.54;99052.22;4344807;33;20301;-86
2022/02/22 05:55:05;;;;;;;;;;;;;;;6.76;59.55;99067.09;4320419;33;20016;-86
2022/02/22 05:57:30;;;;;;;;;;;;;;;6.59;59.55;99058.94;4346229;33;20003;-86
2022/02/22 05:59:55;;;;;;;;;;;;;;;6.50;59.53;99064.34;4332309;33;19998;-87
2022/02/22 06:02:21;;;;;;;;;;;;;;;6.65;59.54;99066.53;4331754;33;34373;-86
2022/02/22 06:04:46;;;;;;;;;;;;;;;6.61;59.55;99070.06;4345791;33;19994;-87
2022/02/22 06:07:11;;;;;;;;;;;;;;;6.73;59.56;99069.75;4320078;33;19991;-86
2022/02/22 06:09:39;;;;;;;;;;;;;;;6.73;59.56;99078.37;4332452;33;19995;-85
2022/02/22 06:12:05;;;;;;;;;;;;;;;6.65;59.54;99080.31;4345978;33;19995;-86
2022/02/22 06:14:31;;;;;;;;;;;;;;;6.58;59.55;99077.91;4332259;33;20340;-86
2022/02/22 06:16:56;;;;;;;;;;;;;;;6.73;59.56;99085.28;4332469;33;20332;-87
2022/02/22 06:19:22;;;;;;;;;;;;;;;6.70;59.55;99083.62;4332230;33;20006;-86
2022/02/22 06:21:47;;;;;;;;;;;;;;;6.62;59.54;99095.88;4345868;33;19990;-86
2022/02/22 06:24:12;;;;;;;;;;;;;;;6.53;59.54;99088.38;4344511;33;20624;-86
2022/02/22 06:26:37;;;;;;;;;;;;;;;6.67;59.55;99091.47;4345115;33;29112;-86
2022/02/22 06:29:03;;;;;;;;;;;;;;;6.79;59.55;99103.22;4331785;33;20309;-86
2022/02/22 06:31:29;;;;;;;;;;;;;;;6.82;59.56;99103.13;4332965;33;19995;-86
2022/02/22 06:33:54;;;;;;;;;;;;;;;6.83;59.55;99106.56;4334223;33;19998;-86
2022/02/22 06:36:19;;;;;;;;;;;;;;;6.86;59.56;99116.81;4334140;33;20336;-86
2022/02/22 06:38:44;;;;;;;;;;;;;;;6.74;59.55;99113.69;4345563;33;33537;-86
2022/02/22 06:41:09;;;;;;;;;;;;;;;6.71;59.55;99126.69;4348005;33;20715;-86
2022/02/22 06:43:35;;;;;;;;;;;;;;;6.38;59.53;99138.72;4334380;33;19999;-86
2022/02/22 06:46:00;;;;;;;;;;;;;;;6.53;59.54;99141.84;4346380;33;19995;-86
2022/02/22 06:48:25;;;;;;;;;;;;;;;6.63;59.54;99139.00;4348041;33;20010;-87
2022/02/22 06:50:50;;;;;;;;;;;;;;;6.60;59.55;99144.22;4346150;33;25354;-85
2022/02/22 06:53:16;;;;;;;;;;;;;;;6.61;59.55;99148.50;4347661;33;20402;-87
2022/02/22 06:55:41;;;;;;;;;;;;;;;6.83;59.56;99151.38;4348072;33;19976;-86
2022/02/22 06:58:07;;;;;;;;;;;;;;;6.98;59.57;99157.91;4346444;33;19979;-86
2022/02/22 07:00:33;;;;;;;;;;;;;;;7.02;59.57;99159.50;4334472;33;19990;-86
2022/02/22 07:02:58;;;;;;;;;;;;;;;7.05;59.58;99160.25;4334494;33;20050;-86
2022/02/22 07:05:23;;;;;;;;;;;;;;;7.15;59.58;99170.37;4346265;33;22261;-86
2022/02/22 07:07:52;;;;;;;;;;;;;;;7.14;59.58;99172.13;4334302;33;19975;-86
2022/02/22 07:10:17;;;;;;;;;;;;;;;7.05;59.58;99173.22;4334762;33;20795;-86
2022/02/22 07:12:43;;;;;;;;;;;;;;;7.02;59.57;99178.47;4334260;33;19997;-86
2022/02/22 07:15:08;;;;;;;;;;;;;;;7.19;59.58;99175.44;4322300;33;20032;-86
2022/02/22 07:17:43;;;;;;;;;;;;;;;7.26;59.58;99176.94;4334361;33;19999;-87
2022/02/22 07:20:08;;;;;;;;;;;;;;;7.30;59.58;99190.66;4348162;33;19976;-85
2022/02/22 07:22:33;;;;;;;;;;;;;;;7.27;59.58;99196.75;4334349;33;20014;-86
2022/02/22 07:24:59;;;;;;;;;;;;;;;7.24;59.58;99198.59;4347411;33;27910;-86
2022/02/22 07:27:24;;;;;;;;;;;;;;;7.39;59.58;99198.19;4334489;33;19980;-86
2022/02/22 07:29:49;;;;;;;;;;;;;;;7.46;59.59;99198.84;4321643;33;24481;-86
2022/02/22 07:32:17;;;;;;;;;;;;;;;7.49;59.60;99206.53;4348031;33;20024;-86
2022/02/22 07:34:42;;;;;;;;;;;;;;;7.37;59.59;99210.31;4334880;33;19983;-86
2022/02/22 07:37:07;;;;;;;;;;;;;;;7.31;59.58;99229.44;4334451;33;20064;-85
2022/02/22 07:39:33;;;;;;;;;;;;;;;7.43;59.59;99222.25;4334234;33;19984;-85
2022/02/22 07:41:58;;;;;;;;;;;;;;;7.57;59.61;99248.59;4333614;33;20027;-86
2022/02/22 07:44:23;;;;;;;;;;;;;;;7.69;59.61;99230.97;4347279;33;20396;-86
2022/02/22 07:46:49;;;;;;;;;;;;;;;7.72;59.61;99242.16;4347702;33;19971;-87
2022/02/22 07:49:14;;;;;;;;;;;;;;;7.82;59.61;99241.00;4334092;33;20038;-86
2022/02/22 07:51:39;;;;;;;;;;;;;;;7.92;59.62;99245.00;4333589;33;23952;-86
2022/02/22 07:54:04;;;;;;;;;;;;;;;7.89;59.62;99255.47;4321748;33;19988;-86
2022/02/22 07:56:31;;;;;;;;;;;;;;;7.85;59.62;99269.41;4346072;33;20321;-86
2022/02/22 07:58:56;;;;;;;;;;;;;;;7.78;59.62;99273.06;4347538;33;20273;-86
2022/02/22 08:01:21;;;;;;;;;;;;;;;7.48;59.60;99269.56;4334030;33;20035;-85
2022/02/22 08:03:47;;;;;;;;;;;;;;;7.43;59.59;99282.66;4347675;33;20619;-87
2022/02/22 08:06:12;;;;;;;;;;;;;;;7.39;59.58;99261.19;4333488;33;34948;-86
2022/02/22 08:08:38;;;;;;;;;;;;;;;7.36;59.59;99276.78;4334221;33;20019;-87
2022/02/22 08:11:03;;;;;;;;;;;;;;;7.53;59.59;99268.56;4322019;33;20359;-86
2022/02/22 08:13:29;;;;;;;;;;;;;;;7.74;59.61;99274.88;4347835;33;19975;-86
2022/02/22 08:15:54;;;;;;;;;;;;;;;7.85;59.62;99272.84;4333763;33;24204;-86
2022/02/22 08:18:19;;;;;;;;;;;;;;;8.01;59.63;99279.28;4347132;33;25861;-86
2022/02/22 08:20:44;;;;;;;;;;;;;;;7.90;59.62;99293.44;4322000;33;20318;-86
2022/02/22 08:23:10;;;;;;;;;;;;;;;7.95;59.62;99287.22;4333926;33;20003;-86
2022/02/22 08:25:35;;;;;;;;;;;;;;;8.03;59.62;99297.38;4333999;33;19992;-86
2022/02/22 08:28:07;;;;;;;;;;;;;;;8.01;59.63;99317.31;4333927;33;20325;-86
2022/02/22 08:30:33;;;;;;;;;;;;;;;8.13;59.63;99290.19;4334237;33;20055;-87
2022/02/22 08:32:59;;;;;;;;;;;;;;;8.06;59.62;99302.50;4347543;33;20047;-86
2022/02/22 08:35:24;;;;;;;;;;;;;;;8.06;59.62;99305.09;4347251;33;19995;-86
2022/02/22 08:37:53;;;;;;;;;;;;;;;8.13;59.63;99305.75;4347282;33;20006;-86
2022/02/22 08:40:18;;;;;;;;;;;;;;;8.13;59.63;99305.75;4347319;33;19991;-86
2022/02/22 08:42:43;;;;;;;;;;;;;;;8.13;59.63;99326.50;4334101;33;20243;-87
2022/02/22 08:45:08;;;;;;;;;;;;;;;8.24;59.64;99332.19;4333614;33;19980;-86
2022/02/22 08:47:34;;;;;;;;;;;;;;;8.18;59.63;99334.97;4347517;33;19987;-87
2022/02/22 08:49:59;;;;;;;;;;;;;;;8.37;59.64;99322.34;4346091;33;20048;-86
2022/02/22 08:52:29;;;;;;;;;;;;;;;8.24;59.64;99340.81;4333923;33;20006;-86
2022/02/22 08:54:55;;;;;;;;;;;;;;;8.25;59.64;99342.53;4334158;33;20018;-85
2022/02/22 08:57:20;;;;;;;;;;;;;;;8.23;59.64;99351.25;4333662;33;19967;-87
2022/02/22 08:59:45;;;;;;;;;;;;;;;8.27;59.64;99350.25;4321145;33;19996;-85
2022/02/22 09:02:10;;;;;;;;;;;;;;;8.26;59.64;99364.97;4321080;33;22132;-87
2022/02/22 09:04:35;;;;;;;;;;;;;;;8.44;59.65;99368.81;4333146;33;32130;-85
2022/02/22 09:07:01;;;;;;;;;;;;;;;8.46;59.65;99377.38;4333842;33;20010;-86
2022/02/22 09:09:26;;;;;;;;;;;;;;;8.26;59.64;99382.25;4333360;33;20270;-86
2022/02/22 09:11:51;;;;;;;;;;;;;;;8.32;59.64;99403.69;4347215;33;20278;-86
2022/02/22 09:14:16;;;;;;;;;;;;;;;8.40;59.65;99382.75;4320773;33;31960;-86
2022/02/22 09:16:41;;;;;;;;;;;;;;;8.60;59.66;99384.78;4345830;33;19980;-86
2022/02/22 09:19:07;;;;;;;;;;;;;;;8.71;59.66;99376.66;4347076;33;19983;-87
2022/02/22 09:21:32;;;;;;;;;;;;;;;8.71;59.66;99381.84;4321157;33;20031;-86
2022/02/22 09:23:57;;;;;;;;;;;;;;;8.71;59.66;99384.44;4345531;33;20337;-87
2022/02/22 09:26:22;;;;;;;;;;;;;;;8.87;59.67;99383.94;4346564;33;20027;-87
2022/02/22 09:28:48;;;;;;;;;;;;;;;8.88;59.67;99401.19;4346847;33;20044;-86
2022/02/22 09:31:13;;;;;;;;;;;;;;;8.90;59.68;99385.59;4320960;33;19987;-85
2022/02/22 09:33:38;;;;;;;;;;;;;;;9.00;59.68;99387.00;4333327;33;19983;-84
2022/02/22 09:36:04;;;;;;;;;;;;;;;9.03;59.68;99399.03;4333180;33;20019;-86
2022/02/22 09:38:29;;;;;;;;;;;;;;;9.02;59.68;99394.75;4346653;33;20013;-86
2022/02/22 09:40:55;;;;;;;;;;;;;;;9.06;59.68;99392.00;4346720;33;20350;-86
2022/02/22 09:43:20;;;;;;;;;;;;;;;8.87;59.67;99399.50;4333170;33;20562;-87
2022/02/22 09:45:45;;;;;;;;;;;;;;;8.99;59.68;99392.22;4346644;33;19991;-86
2022/02/22 09:48:11;;;;;;;;;;;;;;;9.09;59.68;99410.06;4345336;33;20578;-85
2022/02/22 09:50:36;;;;;;;;;;;;;;;9.23;59.70;99413.09;4346635;33;20019;-86
2022/02/22 09:53:02;;;;;;;;;;;;;;;9.03;59.68;99404.22;4346522;33;19990;-88
2022/02/22 09:55:27;;;;;;;;;;;;;;;9.23;59.69;99397.53;4320662;33;19998;-87
2022/02/22 09:57:52;;;;;;;;;;;;;;;9.34;59.70;99399.75;4346232;33;19994;-86
2022/02/22 10:00:22;;;;;;;;;;;;;;;9.28;59.70;99397.38;4333043;33;20494;-86
2022/02/22 10:02:47;;;;;;;;;;;;;;;9.56;59.71;99407.69;4332943;33;20030;-86
2022/02/22 10:05:12;;;;;;;;;;;;;;;9.80;59.73;99406.00;4346428;33;20255;-87
2022/02/22 10:07:57;;;;;;;;;;;;;;;9.97;59.73;99421.87;4348031;33;20263;-87
2022/02/22 10:10:35;;;;;;;;;;;;;;;9.79;59.73;99432.91;4322503;33;19995;-87
2022/02/22 10:13:01;;;;;;;;;;;;;;;9.78;59.72;99460.66;4334557;33;20070;-86
2022/02/22 10:15:27;;;;;;;;;;;;;;;9.33;59.69;99420.59;4322428;33;20306;-86
2022/02/22 10:17:52;;;;;;;;;;;;;;;9.68;59.72;99409.88;4334819;33;19995;-86
2022/02/22 10:20:17;;;;;;;;;;;;;;;9.59;59.71;99425.78;4334787;33;20010;-87
2022/02/22 10:22:46;;;;;;;;;;;;;;;9.65;59.72;99409.97;4348333;33;19975;-86
2022/02/22 10:25:11;;;;;;;;;;;;;;;9.67;59.72;99407.31;4322334;33;20298;-86
2022/02/22 10:27:44;;;;;;;;;;;;;;;9.95;59.74;99423.69;4334451;33;20027;-86
2022/02/22 10:30:25;;;;;;;;;;;;;;;9.98;59.74;99430.53;4334801;33;20014;-86
2022/02/22 10:32:51;;;;;;;;;;;;;;;9.78;59.72;99431.22;4348307;33;19971;-86
2022/02/22 10:35:26;;;;;;;;;;;;;;;9.48;59.71;99433.09;4322471;33;19998;-86
2022/02/22 10:37:51;;;;;;;;;;;;;;;9.58;59.71;99438.81;4348161;33;20006;-86
2022/02/22 10:40:16;;;;;;;;;;;;;;;9.42;59.71;99441.91;4346741;33;20298;-87
2022/02/22 10:42:41;;;;;;;;;;;;;;;9.67;59.72;99431.56;4333635;33;35079;-86
2022/02/22 10:45:10;;;;;;;;;;;;;;;9.76;59.72;99433.88;4348063;33;20520;-86
2022/02/22 10:47:38;;;;;;;;;;;;;;;9.80;59.74;99440.66;4348116;33;20001;-86
2022/02/22 10:50:04;;;;;;;;;;;;;;;9.97;59.73;99444.44;4334715;33;19991;-87
2022/02/22 10:52:29;;;;;;;;;;;;;;;9.97;59.73;99439.25;4334506;33;20313;-86
2022/02/22 10:54:58;;;;;;;;;;;;;;;10.11;59.75;99435.25;4348010;33;20025;-86
2022/02/22 10:57:23;;;;;;;;;;;;;;;10.05;59.74;99439.81;4321974;33;19995;-87
2022/02/22 10:59:48;;;;;;;;;;;;;;;10.13;59.74;99441.25;4334242;33;20798;-87
2022/02/22 11:02:14;;;;;;;;;;;;;;;10.38;59.75;99456.84;4347983;33;19980;-86
2022/02/22 11:04:40;;;;;;;;;;;;;;;10.37;59.76;99449.94;4334425;33;19998;-87
2022/02/22 11:07:06;;;;;;;;;;;;;;;10.37;59.76;99446.50;4334235;33;20006;-87
2022/02/22 11:09:31;;;;;;;;;;;;;;;10.33;59.75;99445.78;4347945;33;20128;-87
2022/02/22 11:12:03;;;;;;;;;;;;;;;10.39;59.76;99455.09;4333848;33;22763;-86
2022/02/22 11:14:31;;;;;;;;;;;;;;;10.54;59.76;99441.53;4322171;33;20014;-87
2022/02/22 11:16:58;;;;;;;;;;;;;;;10.79;59.78;99451.03;4334362;33;20011;-87
2022/02/22 11:19:26;;;;;;;;;;;;;;;10.76;59.78;99449.41;4334511;33;19991;-86
2022/02/22 11:21:52;;;;;;;;;;;;;;;10.69;59.78;99454.00;4347962;33;20078;-86
2022/02/22 11:24:21;;;;;;;;;;;;;;;10.62;59.78;99455.13;4334401;33;20318;-87
2022/02/22 11:26:59;;;;;;;;;;;;;;;10.78;59.78;99450.19;4334793;33;20003;-86
2022/02/22 11:29:26;;;;;;;;;;;;;;;11.00;59.79;99455.44;4334354;33;20006;-87
2022/02/22 11:32:02;;;;;;;;;;;;;;;11.22;59.81;99453.69;4334166;33;19975;-85
2022/02/22 11:34:48;;;;;;;;;;;;;;;11.41;59.82;99443.41;4334134;33;19984;-85
2022/02/22 11:37:14;;;;;;;;;;;;;;;11.44;59.81;99452.84;4347475;33;20043;-85
2022/02/22 11:39:46;;;;;;;;;;;;;;;11.13;59.80;99456.69;4322214;33;20022;-84
2022/02/22 11:42:27;;;;;;;;;;;;;;;10.89;59.79;99468.88;4334465;33;20041;-84
2022/02/22 11:44:59;;;;;;;;;;;;;;;10.97;59.79;99474.66;4334619;33;19975;-85
2022/02/22 11:47:24;;;;;;;;;;;;;;;11.16;59.80;99469.59;4347816;33;20098;-87
2022/02/22 11:49:50;;;;;;;;;;;;;;;10.89;59.78;99478.44;4334238;33;20293;-87
2022/02/22 11:52:15;;;;;;;;;;;;;;;11.05;59.80;99464.78;4347665;33;20346;-86
2022/02/22 11:54:40;;;;;;;;;;;;;;;10.87;59.79;99482.84;4347691;33;19975;-87
2022/02/22 11:57:07;;;;;;;;;;;;;;;10.72;59.78;99487.72;4321621;33;20361;-88
2022/02/22 11:59:44;;;;;;;;;;;;;;;10.69;59.77;99479.19;4347647;33;20493;-87
2022/02/22 12:02:09;;;;;;;;;;;;;;;10.91;59.78;99469.69;4347795;33;20042;-86
2022/02/22 12:04:34;;;;;;;;;;;;;;;10.66;59.77;99487.12;4347689;33;20238;-87
2022/02/22 12:07:01;;;;;;;;;;;;;;;10.71;59.78;99491.25;4346787;33;36164;-85
2022/02/22 12:09:37;;;;;;;;;;;;;;;10.73;59.77;99488.56;4321912;33;20451;-87
2022/02/22 12:12:03;;;;;;;;;;;;;;;10.86;59.79;99489.81;4334023;33;20039;-87
2022/02/22 12:14:28;;;;;;;;;;;;;;;11.18;59.80;99500.78;4333971;33;20053;-87
2022/02/22 12:16:53;;;;;;;;;;;;;;;10.84;59.79;99507.25;4321717;33;20003;-86
2022/02/22 12:19:19;;;;;;;;;;;;;;;10.72;59.78;99503.34;4347136;33;24178;-86
2022/02/22 12:21:44;;;;;;;;;;;;;;;10.73;59.78;99515.47;4346242;33;19995;-86
2022/02/22 12:24:13;;;;;;;;;;;;;;;10.70;59.78;99505.16;4321710;33;19975;-86
2022/02/22 12:26:40;;;;;;;;;;;;;;;10.83;59.78;99508.16;4347441;33;20010;-87
2022/02/22 12:29:07;;;;;;;;;;;;;;;11.00;59.79;99499.72;4333601;33;20011;-86
2022/02/22 12:31:34;;;;;;;;;;;;;;;10.95;59.79;99506.84;4321717;33;19988;-87
2022/02/22 12:34:26;;;;;;;;;;;;;;;10.77;59.79;99504.03;4334078;33;19988;-87
2022/02/22 12:36:52;;;;;;;;;;;;;;;10.94;59.79;99499.97;4344728;33;20349;-87
2022/02/22 12:39:18;;;;;;;;;;;;;;;10.76;59.78;99517.09;4333750;33;20035;-87
2022/02/22 12:41:44;;;;;;;;;;;;;;;10.93;59.79;99508.69;4333728;33;19982;-86
2022/02/22 12:44:11;;;;;;;;;;;;;;;10.97;59.79;99513.69;4333775;33;20091;-85
2022/02/22 12:46:36;;;;;;;;;;;;;;;10.73;59.78;99515.47;4333840;33;19995;-87
2022/02/22 12:49:08;;;;;;;;;;;;;;;10.86;59.79;99507.19;4333677;33;20002;-85